sensor_id;sensor_type;location;lat;lon;timestamp;P1;durP1;ratioP1;P2;durP2;ratioP2
48665;SDS011;34452;50.796;4.994;2023-07-31T00:00:31;18.80;;;4.15;;
48665;SDS011;34452;50.796;4.994;2023-07-31T00:02:57;14.20;;;4.13;;
48665;SDS011;34452;50.796;4.994;2023-07-31T00:05:23;15.90;;;4.32;;
48665;SDS011;34452;50.796;4.994;2023-07-31T00:07:48;13.77;;;4.28;;
48665;SDS011;34452;50.796;4.994;2023-07-31T00:10:14;16.63;;;4.45;;
48665;SDS011;34452;50.796;4.994;2023-07-31T00:12:41;14.55;;;3.97;;
48665;SDS011;34452;50.796;4.994;2023-07-31T00:15:08;14.27;;;3.78;;
48665;SDS011;34452;50.796;4.994;2023-07-31T00:17:34;9.70;;;3.67;;
48665;SDS011;34452;50.796;4.994;2023-07-31T00:20:01;18.67;;;4.70;;
48665;SDS011;34452;50.796;4.994;2023-07-31T00:22:27;12.68;;;3.85;;
48665;SDS011;34452;50.796;4.994;2023-07-31T00:24:53;14.15;;;4.22;;
48665;SDS011;34452;50.796;4.994;2023-07-31T00:27:18;12.02;;;3.92;;
48665;SDS011;34452;50.796;4.994;2023-07-31T00:29:44;8.02;;;3.55;;
48665;SDS011;34452;50.796;4.994;2023-07-31T00:32:10;11.60;;;3.67;;
48665;SDS011;34452;50.796;4.994;2023-07-31T00:34:35;15.57;;;4.53;;
48665;SDS011;34452;50.796;4.994;2023-07-31T00:37:01;15.05;;;3.95;;
48665;SDS011;34452;50.796;4.994;2023-07-31T00:39:27;14.18;;;3.75;;
48665;SDS011;34452;50.796;4.994;2023-07-31T00:41:54;14.10;;;5.00;;
48665;SDS011;34452;50.796;4.994;2023-07-31T00:44:20;19.48;;;4.53;;
48665;SDS011;34452;50.796;4.994;2023-07-31T00:46:46;16.90;;;4.00;;
48665;SDS011;34452;50.796;4.994;2023-07-31T00:49:12;14.23;;;3.95;;
48665;SDS011;34452;50.796;4.994;2023-07-31T00:51:38;12.57;;;3.90;;
48665;SDS011;34452;50.796;4.994;2023-07-31T00:54:03;13.45;;;4.05;;
48665;SDS011;34452;50.796;4.994;2023-07-31T00:56:29;14.30;;;4.07;;
48665;SDS011;34452;50.796;4.994;2023-07-31T00:58:56;13.95;;;4.35;;
48665;SDS011;34452;50.796;4.994;2023-07-31T01:01:21;9.32;;;3.60;;
48665;SDS011;34452;50.796;4.994;2023-07-31T01:03:47;14.68;;;4.57;;
48665;SDS011;34452;50.796;4.994;2023-07-31T01:06:19;15.00;;;4.70;;
48665;SDS011;34452;50.796;4.994;2023-07-31T01:08:58;18.75;;;5.07;;
48665;SDS011;34452;50.796;4.994;2023-07-31T01:11:30;18.65;;;4.20;;
48665;SDS011;34452;50.796;4.994;2023-07-31T01:13:58;7.93;;;3.58;;
48665;SDS011;34452;50.796;4.994;2023-07-31T01:16:25;16.73;;;4.68;;
48665;SDS011;34452;50.796;4.994;2023-07-31T01:18:51;12.52;;;4.05;;
48665;SDS011;34452;50.796;4.994;2023-07-31T01:21:21;16.17;;;4.70;;
48665;SDS011;34452;50.796;4.994;2023-07-31T01:26:45;13.65;;;4.80;;
48665;SDS011;34452;50.796;4.994;2023-07-31T01:29:21;12.98;;;4.30;;
48665;SDS011;34452;50.796;4.994;2023-07-31T01:31:55;12.95;;;5.18;;
48665;SDS011;34452;50.796;4.994;2023-07-31T01:34:26;14.43;;;4.47;;
48665;SDS011;34452;50.796;4.994;2023-07-31T01:36:54;13.93;;;4.45;;
48665;SDS011;34452;50.796;4.994;2023-07-31T01:39:22;13.05;;;4.00;;
48665;SDS011;34452;50.796;4.994;2023-07-31T01:41:48;13.50;;;4.35;;
48665;SDS011;34452;50.796;4.994;2023-07-31T01:44:13;10.13;;;4.07;;
48665;SDS011;34452;50.796;4.994;2023-07-31T01:46:39;12.18;;;4.72;;
48665;SDS011;34452;50.796;4.994;2023-07-31T01:49:05;17.92;;;5.28;;
48665;SDS011;34452;50.796;4.994;2023-07-31T01:51:31;13.68;;;4.40;;
48665;SDS011;34452;50.796;4.994;2023-07-31T01:53:59;18.17;;;5.00;;
48665;SDS011;34452;50.796;4.994;2023-07-31T01:56:25;9.73;;;4.57;;
48665;SDS011;34452;50.796;4.994;2023-07-31T01:58:51;16.15;;;4.32;;
48665;SDS011;34452;50.796;4.994;2023-07-31T02:01:17;8.30;;;4.15;;
48665;SDS011;34452;50.796;4.994;2023-07-31T02:03:42;10.18;;;3.70;;
48665;SDS011;34452;50.796;4.994;2023-07-31T02:06:08;11.75;;;4.32;;
48665;SDS011;34452;50.796;4.994;2023-07-31T02:08:34;10.32;;;4.03;;
48665;SDS011;34452;50.796;4.994;2023-07-31T02:10:59;7.47;;;3.80;;
48665;SDS011;34452;50.796;4.994;2023-07-31T02:13:25;11.65;;;4.05;;
48665;SDS011;34452;50.796;4.994;2023-07-31T02:15:51;22.27;;;4.10;;
48665;SDS011;34452;50.796;4.994;2023-07-31T02:18:17;15.10;;;4.18;;
48665;SDS011;34452;50.796;4.994;2023-07-31T02:20:42;13.77;;;4.25;;
48665;SDS011;34452;50.796;4.994;2023-07-31T02:23:11;11.73;;;4.15;;
48665;SDS011;34452;50.796;4.994;2023-07-31T02:25:36;11.90;;;4.30;;
48665;SDS011;34452;50.796;4.994;2023-07-31T02:28:02;13.57;;;4.60;;
48665;SDS011;34452;50.796;4.994;2023-07-31T02:30:28;10.07;;;3.88;;
48665;SDS011;34452;50.796;4.994;2023-07-31T02:32:54;10.27;;;4.45;;
48665;SDS011;34452;50.796;4.994;2023-07-31T02:35:19;10.45;;;4.68;;
48665;SDS011;34452;50.796;4.994;2023-07-31T02:37:45;9.70;;;4.25;;
48665;SDS011;34452;50.796;4.994;2023-07-31T02:40:11;8.30;;;3.80;;
48665;SDS011;34452;50.796;4.994;2023-07-31T02:42:37;10.85;;;4.13;;
48665;SDS011;34452;50.796;4.994;2023-07-31T02:45:02;16.63;;;4.43;;
48665;SDS011;34452;50.796;4.994;2023-07-31T02:47:28;15.02;;;4.13;;
48665;SDS011;34452;50.796;4.994;2023-07-31T02:49:54;11.38;;;4.63;;
48665;SDS011;34452;50.796;4.994;2023-07-31T02:52:21;12.30;;;4.20;;
48665;SDS011;34452;50.796;4.994;2023-07-31T02:54:46;8.50;;;3.88;;
48665;SDS011;34452;50.796;4.994;2023-07-31T02:57:12;11.18;;;4.30;;
48665;SDS011;34452;50.796;4.994;2023-07-31T02:59:38;10.18;;;3.63;;
48665;SDS011;34452;50.796;4.994;2023-07-31T03:02:03;9.95;;;3.85;;
48665;SDS011;34452;50.796;4.994;2023-07-31T03:04:29;9.20;;;4.00;;
48665;SDS011;34452;50.796;4.994;2023-07-31T03:06:55;9.73;;;3.47;;
48665;SDS011;34452;50.796;4.994;2023-07-31T03:09:20;11.65;;;3.60;;
48665;SDS011;34452;50.796;4.994;2023-07-31T03:11:46;7.72;;;3.63;;
48665;SDS011;34452;50.796;4.994;2023-07-31T03:14:12;10.10;;;2.95;;
48665;SDS011;34452;50.796;4.994;2023-07-31T03:16:37;9.05;;;3.92;;
48665;SDS011;34452;50.796;4.994;2023-07-31T03:19:03;8.20;;;3.55;;
48665;SDS011;34452;50.796;4.994;2023-07-31T03:21:29;9.85;;;3.60;;
48665;SDS011;34452;50.796;4.994;2023-07-31T03:23:54;11.68;;;3.78;;
48665;SDS011;34452;50.796;4.994;2023-07-31T03:26:20;12.00;;;3.65;;
48665;SDS011;34452;50.796;4.994;2023-07-31T03:28:46;9.18;;;4.43;;
48665;SDS011;34452;50.796;4.994;2023-07-31T03:31:12;11.20;;;3.55;;
48665;SDS011;34452;50.796;4.994;2023-07-31T03:33:37;9.68;;;3.60;;
48665;SDS011;34452;50.796;4.994;2023-07-31T03:36:03;11.02;;;3.60;;
48665;SDS011;34452;50.796;4.994;2023-07-31T03:38:29;6.47;;;3.53;;
48665;SDS011;34452;50.796;4.994;2023-07-31T03:40:55;12.07;;;3.85;;
48665;SDS011;34452;50.796;4.994;2023-07-31T03:43:21;9.82;;;3.80;;
48665;SDS011;34452;50.796;4.994;2023-07-31T03:45:46;11.55;;;3.78;;
48665;SDS011;34452;50.796;4.994;2023-07-31T03:48:14;6.95;;;3.30;;
48665;SDS011;34452;50.796;4.994;2023-07-31T03:50:40;5.78;;;3.45;;
48665;SDS011;34452;50.796;4.994;2023-07-31T03:53:06;5.78;;;3.33;;
48665;SDS011;34452;50.796;4.994;2023-07-31T03:55:31;10.63;;;3.40;;
48665;SDS011;34452;50.796;4.994;2023-07-31T03:57:57;9.20;;;3.50;;
48665;SDS011;34452;50.796;4.994;2023-07-31T04:00:23;10.30;;;3.47;;
48665;SDS011;34452;50.796;4.994;2023-07-31T04:02:48;11.90;;;3.83;;
48665;SDS011;34452;50.796;4.994;2023-07-31T04:05:14;12.98;;;3.42;;
48665;SDS011;34452;50.796;4.994;2023-07-31T04:07:40;8.20;;;3.22;;
48665;SDS011;34452;50.796;4.994;2023-07-31T04:10:06;9.18;;;3.53;;
48665;SDS011;34452;50.796;4.994;2023-07-31T04:14:57;11.27;;;3.10;;
48665;SDS011;34452;50.796;4.994;2023-07-31T04:17:23;9.32;;;3.28;;
48665;SDS011;34452;50.796;4.994;2023-07-31T04:19:49;7.20;;;3.20;;
48665;SDS011;34452;50.796;4.994;2023-07-31T04:22:14;16.27;;;3.63;;
48665;SDS011;34452;50.796;4.994;2023-07-31T04:24:40;16.50;;;3.58;;
48665;SDS011;34452;50.796;4.994;2023-07-31T04:27:06;6.20;;;3.00;;
48665;SDS011;34452;50.796;4.994;2023-07-31T04:29:31;12.35;;;3.50;;
48665;SDS011;34452;50.796;4.994;2023-07-31T04:31:57;7.40;;;3.13;;
48665;SDS011;34452;50.796;4.994;2023-07-31T04:34:23;7.65;;;3.38;;
48665;SDS011;34452;50.796;4.994;2023-07-31T04:36:48;9.15;;;3.22;;
48665;SDS011;34452;50.796;4.994;2023-07-31T04:39:14;7.00;;;2.80;;
48665;SDS011;34452;50.796;4.994;2023-07-31T04:41:40;9.50;;;3.45;;
48665;SDS011;34452;50.796;4.994;2023-07-31T04:44:05;7.97;;;2.92;;
48665;SDS011;34452;50.796;4.994;2023-07-31T04:46:31;8.98;;;3.78;;
48665;SDS011;34452;50.796;4.994;2023-07-31T04:48:57;10.90;;;3.50;;
48665;SDS011;34452;50.796;4.994;2023-07-31T04:51:22;12.68;;;4.07;;
48665;SDS011;34452;50.796;4.994;2023-07-31T04:53:48;5.85;;;3.03;;
48665;SDS011;34452;50.796;4.994;2023-07-31T04:56:14;12.57;;;3.03;;
48665;SDS011;34452;50.796;4.994;2023-07-31T04:58:44;8.82;;;3.67;;
48665;SDS011;34452;50.796;4.994;2023-07-31T05:01:09;7.85;;;3.28;;
48665;SDS011;34452;50.796;4.994;2023-07-31T05:03:35;9.30;;;3.33;;
48665;SDS011;34452;50.796;4.994;2023-07-31T05:06:01;8.02;;;3.22;;
48665;SDS011;34452;50.796;4.994;2023-07-31T05:08:27;7.10;;;2.67;;
48665;SDS011;34452;50.796;4.994;2023-07-31T05:10:52;11.25;;;3.22;;
48665;SDS011;34452;50.796;4.994;2023-07-31T05:13:18;6.47;;;2.90;;
48665;SDS011;34452;50.796;4.994;2023-07-31T05:15:44;12.43;;;3.25;;
48665;SDS011;34452;50.796;4.994;2023-07-31T05:18:10;9.27;;;3.05;;
48665;SDS011;34452;50.796;4.994;2023-07-31T05:20:36;6.60;;;3.03;;
48665;SDS011;34452;50.796;4.994;2023-07-31T05:23:02;10.38;;;3.30;;
48665;SDS011;34452;50.796;4.994;2023-07-31T05:25:27;11.90;;;3.00;;
48665;SDS011;34452;50.796;4.994;2023-07-31T05:27:53;5.82;;;2.95;;
48665;SDS011;34452;50.796;4.994;2023-07-31T05:30:19;11.10;;;3.50;;
48665;SDS011;34452;50.796;4.994;2023-07-31T05:32:46;9.30;;;2.70;;
48665;SDS011;34452;50.796;4.994;2023-07-31T05:35:12;8.43;;;3.25;;
48665;SDS011;34452;50.796;4.994;2023-07-31T05:37:37;8.05;;;2.83;;
48665;SDS011;34452;50.796;4.994;2023-07-31T05:40:03;9.85;;;3.33;;
48665;SDS011;34452;50.796;4.994;2023-07-31T05:44:55;7.60;;;2.85;;
48665;SDS011;34452;50.796;4.994;2023-07-31T05:47:21;8.05;;;2.80;;
48665;SDS011;34452;50.796;4.994;2023-07-31T05:49:46;7.05;;;3.08;;
48665;SDS011;34452;50.796;4.994;2023-07-31T05:52:13;10.10;;;3.58;;
48665;SDS011;34452;50.796;4.994;2023-07-31T05:54:39;6.63;;;2.80;;
48665;SDS011;34452;50.796;4.994;2023-07-31T05:57:04;11.65;;;2.83;;
48665;SDS011;34452;50.796;4.994;2023-07-31T05:59:30;9.45;;;3.40;;
48665;SDS011;34452;50.796;4.994;2023-07-31T06:01:58;7.40;;;3.20;;
48665;SDS011;34452;50.796;4.994;2023-07-31T06:04:24;7.50;;;3.28;;
48665;SDS011;34452;50.796;4.994;2023-07-31T06:06:50;15.20;;;3.13;;
48665;SDS011;34452;50.796;4.994;2023-07-31T06:11:42;7.55;;;2.85;;
48665;SDS011;34452;50.796;4.994;2023-07-31T06:14:08;7.43;;;3.33;;
48665;SDS011;34452;50.796;4.994;2023-07-31T06:16:34;6.28;;;2.95;;
48665;SDS011;34452;50.796;4.994;2023-07-31T06:19:00;10.30;;;3.00;;
48665;SDS011;34452;50.796;4.994;2023-07-31T06:21:26;8.30;;;2.83;;
48665;SDS011;34452;50.796;4.994;2023-07-31T06:23:52;10.30;;;3.17;;
48665;SDS011;34452;50.796;4.994;2023-07-31T06:26:18;11.55;;;3.35;;
48665;SDS011;34452;50.796;4.994;2023-07-31T06:28:43;9.55;;;3.25;;
48665;SDS011;34452;50.796;4.994;2023-07-31T06:31:09;11.68;;;3.47;;
48665;SDS011;34452;50.796;4.994;2023-07-31T06:33:35;10.77;;;3.05;;
48665;SDS011;34452;50.796;4.994;2023-07-31T06:36:00;11.07;;;3.50;;
48665;SDS011;34452;50.796;4.994;2023-07-31T06:38:26;7.65;;;3.20;;
48665;SDS011;34452;50.796;4.994;2023-07-31T06:40:52;11.18;;;2.97;;
48665;SDS011;34452;50.796;4.994;2023-07-31T06:43:18;9.07;;;3.15;;
48665;SDS011;34452;50.796;4.994;2023-07-31T06:45:44;7.05;;;3.05;;
48665;SDS011;34452;50.796;4.994;2023-07-31T06:50:36;7.65;;;2.92;;
48665;SDS011;34452;50.796;4.994;2023-07-31T06:53:02;8.02;;;2.55;;
48665;SDS011;34452;50.796;4.994;2023-07-31T06:55:28;7.68;;;2.85;;
48665;SDS011;34452;50.796;4.994;2023-07-31T06:57:54;9.48;;;2.97;;
48665;SDS011;34452;50.796;4.994;2023-07-31T07:00:21;6.35;;;2.50;;
48665;SDS011;34452;50.796;4.994;2023-07-31T07:02:47;7.15;;;3.22;;
48665;SDS011;34452;50.796;4.994;2023-07-31T07:07:40;10.48;;;3.38;;
48665;SDS011;34452;50.796;4.994;2023-07-31T07:10:06;9.55;;;3.00;;
48665;SDS011;34452;50.796;4.994;2023-07-31T07:12:32;9.23;;;2.63;;
48665;SDS011;34452;50.796;4.994;2023-07-31T07:14:58;5.10;;;2.70;;
48665;SDS011;34452;50.796;4.994;2023-07-31T07:17:24;6.03;;;2.67;;
48665;SDS011;34452;50.796;4.994;2023-07-31T07:19:51;6.80;;;2.47;;
48665;SDS011;34452;50.796;4.994;2023-07-31T07:22:17;7.75;;;3.03;;
48665;SDS011;34452;50.796;4.994;2023-07-31T07:24:43;6.38;;;2.63;;
48665;SDS011;34452;50.796;4.994;2023-07-31T07:27:09;6.50;;;2.75;;
48665;SDS011;34452;50.796;4.994;2023-07-31T07:29:35;12.65;;;2.80;;
48665;SDS011;34452;50.796;4.994;2023-07-31T07:32:00;7.95;;;2.42;;
48665;SDS011;34452;50.796;4.994;2023-07-31T07:34:27;5.68;;;2.42;;
48665;SDS011;34452;50.796;4.994;2023-07-31T07:36:53;5.55;;;2.40;;
48665;SDS011;34452;50.796;4.994;2023-07-31T07:39:19;7.70;;;2.75;;
48665;SDS011;34452;50.796;4.994;2023-07-31T07:41:45;6.43;;;2.42;;
48665;SDS011;34452;50.796;4.994;2023-07-31T07:44:12;5.75;;;2.10;;
48665;SDS011;34452;50.796;4.994;2023-07-31T07:46:38;7.13;;;2.40;;
48665;SDS011;34452;50.796;4.994;2023-07-31T07:49:04;10.00;;;2.58;;
48665;SDS011;34452;50.796;4.994;2023-07-31T07:51:30;9.70;;;2.67;;
48665;SDS011;34452;50.796;4.994;2023-07-31T07:53:56;6.47;;;2.75;;
48665;SDS011;34452;50.796;4.994;2023-07-31T07:56:25;5.78;;;2.50;;
48665;SDS011;34452;50.796;4.994;2023-07-31T07:58:51;6.35;;;2.85;;
48665;SDS011;34452;50.796;4.994;2023-07-31T08:01:17;8.15;;;2.92;;
48665;SDS011;34452;50.796;4.994;2023-07-31T08:03:43;10.82;;;2.53;;
48665;SDS011;34452;50.796;4.994;2023-07-31T08:06:09;8.30;;;2.70;;
48665;SDS011;34452;50.796;4.994;2023-07-31T08:08:35;7.60;;;3.05;;
48665;SDS011;34452;50.796;4.994;2023-07-31T08:11:02;14.30;;;3.47;;
48665;SDS011;34452;50.796;4.994;2023-07-31T08:13:27;7.53;;;2.58;;
48665;SDS011;34452;50.796;4.994;2023-07-31T08:15:54;10.52;;;2.83;;
48665;SDS011;34452;50.796;4.994;2023-07-31T08:18:20;13.25;;;3.80;;
48665;SDS011;34452;50.796;4.994;2023-07-31T08:20:45;7.50;;;3.08;;
48665;SDS011;34452;50.796;4.994;2023-07-31T08:23:11;7.78;;;3.10;;
48665;SDS011;34452;50.796;4.994;2023-07-31T08:25:37;13.77;;;3.10;;
48665;SDS011;34452;50.796;4.994;2023-07-31T08:28:04;10.93;;;3.80;;
48665;SDS011;34452;50.796;4.994;2023-07-31T08:30:30;7.45;;;2.63;;
48665;SDS011;34452;50.796;4.994;2023-07-31T08:32:56;4.80;;;2.75;;
48665;SDS011;34452;50.796;4.994;2023-07-31T08:35:22;8.57;;;3.00;;
48665;SDS011;34452;50.796;4.994;2023-07-31T08:37:49;7.10;;;3.17;;
48665;SDS011;34452;50.796;4.994;2023-07-31T08:40:15;9.57;;;3.58;;
48665;SDS011;34452;50.796;4.994;2023-07-31T08:42:52;5.45;;;2.42;;
48665;SDS011;34452;50.796;4.994;2023-07-31T08:45:36;9.48;;;3.97;;
48665;SDS011;34452;50.796;4.994;2023-07-31T08:48:03;6.13;;;3.08;;
48665;SDS011;34452;50.796;4.994;2023-07-31T08:50:29;4.68;;;2.80;;
48665;SDS011;34452;50.796;4.994;2023-07-31T08:52:55;10.75;;;4.13;;
48665;SDS011;34452;50.796;4.994;2023-07-31T08:55:21;6.55;;;2.58;;
48665;SDS011;34452;50.796;4.994;2023-07-31T08:57:50;7.32;;;2.33;;
48665;SDS011;34452;50.796;4.994;2023-07-31T09:00:18;5.97;;;3.00;;
48665;SDS011;34452;50.796;4.994;2023-07-31T09:02:57;4.70;;;2.00;;
48665;SDS011;34452;50.796;4.994;2023-07-31T09:05:28;4.22;;;1.92;;
48665;SDS011;34452;50.796;4.994;2023-07-31T09:07:55;6.07;;;1.92;;
48665;SDS011;34452;50.796;4.994;2023-07-31T09:10:22;4.45;;;1.90;;
48665;SDS011;34452;50.796;4.994;2023-07-31T09:12:49;6.18;;;1.85;;
48665;SDS011;34452;50.796;4.994;2023-07-31T09:15:16;6.05;;;1.60;;
48665;SDS011;34452;50.796;4.994;2023-07-31T09:17:42;2.85;;;1.55;;
48665;SDS011;34452;50.796;4.994;2023-07-31T09:22:52;3.05;;;1.33;;
48665;SDS011;34452;50.796;4.994;2023-07-31T09:25:20;3.13;;;1.33;;
48665;SDS011;34452;50.796;4.994;2023-07-31T09:27:58;2.55;;;1.30;;
48665;SDS011;34452;50.796;4.994;2023-07-31T09:30:25;3.90;;;1.48;;
48665;SDS011;34452;50.796;4.994;2023-07-31T09:38:10;8.95;;;1.92;;
48665;SDS011;34452;50.796;4.994;2023-07-31T09:40:39;4.50;;;1.67;;
48665;SDS011;34452;50.796;4.994;2023-07-31T09:43:07;3.50;;;1.50;;
48665;SDS011;34452;50.796;4.994;2023-07-31T09:45:36;4.32;;;2.00;;
48665;SDS011;34452;50.796;4.994;2023-07-31T09:48:06;3.92;;;2.00;;
48665;SDS011;34452;50.796;4.994;2023-07-31T09:50:36;4.43;;;2.10;;
48665;SDS011;34452;50.796;4.994;2023-07-31T09:53:03;6.22;;;2.17;;
48665;SDS011;34452;50.796;4.994;2023-07-31T09:55:29;6.10;;;2.17;;
48665;SDS011;34452;50.796;4.994;2023-07-31T09:57:56;9.73;;;2.90;;
48665;SDS011;34452;50.796;4.994;2023-07-31T10:02:51;7.85;;;2.92;;
48665;SDS011;34452;50.796;4.994;2023-07-31T10:05:19;10.07;;;2.83;;
48665;SDS011;34452;50.796;4.994;2023-07-31T10:07:51;7.85;;;3.00;;
48665;SDS011;34452;50.796;4.994;2023-07-31T10:10:19;8.27;;;2.70;;
48665;SDS011;34452;50.796;4.994;2023-07-31T10:12:46;7.88;;;3.15;;
48665;SDS011;34452;50.796;4.994;2023-07-31T10:15:13;9.18;;;3.20;;
48665;SDS011;34452;50.796;4.994;2023-07-31T10:17:40;8.48;;;3.38;;
48665;SDS011;34452;50.796;4.994;2023-07-31T10:20:07;7.47;;;3.40;;
48665;SDS011;34452;50.796;4.994;2023-07-31T10:22:34;7.25;;;3.22;;
48665;SDS011;34452;50.796;4.994;2023-07-31T10:25:00;5.95;;;3.45;;
48665;SDS011;34452;50.796;4.994;2023-07-31T10:29:53;11.68;;;3.65;;
48665;SDS011;34452;50.796;4.994;2023-07-31T10:32:20;8.65;;;3.08;;
48665;SDS011;34452;50.796;4.994;2023-07-31T10:34:47;6.40;;;3.53;;
48665;SDS011;34452;50.796;4.994;2023-07-31T10:40:30;12.13;;;3.97;;
48665;SDS011;34452;50.796;4.994;2023-07-31T10:42:56;21.70;;;4.40;;
48665;SDS011;34452;50.796;4.994;2023-07-31T10:45:24;12.80;;;3.20;;
48665;SDS011;34452;50.796;4.994;2023-07-31T10:50:40;10.07;;;3.17;;
48665;SDS011;34452;50.796;4.994;2023-07-31T10:53:30;7.50;;;3.40;;
48665;SDS011;34452;50.796;4.994;2023-07-31T10:58:44;9.93;;;3.70;;
48665;SDS011;34452;50.796;4.994;2023-07-31T11:01:11;9.38;;;3.55;;
48665;SDS011;34452;50.796;4.994;2023-07-31T11:06:21;9.18;;;3.67;;
48665;SDS011;34452;50.796;4.994;2023-07-31T11:08:48;9.90;;;3.50;;
48665;SDS011;34452;50.796;4.994;2023-07-31T11:11:15;9.13;;;3.33;;
48665;SDS011;34452;50.796;4.994;2023-07-31T11:16:13;6.28;;;3.47;;
48665;SDS011;34452;50.796;4.994;2023-07-31T11:21:06;7.72;;;3.47;;
48665;SDS011;34452;50.796;4.994;2023-07-31T11:23:32;11.18;;;4.03;;
48665;SDS011;34452;50.796;4.994;2023-07-31T11:25:59;8.48;;;3.30;;
48665;SDS011;34452;50.796;4.994;2023-07-31T11:28:25;10.80;;;3.53;;
48665;SDS011;34452;50.796;4.994;2023-07-31T11:30:51;11.50;;;3.35;;
48665;SDS011;34452;50.796;4.994;2023-07-31T11:33:17;7.72;;;3.60;;
48665;SDS011;34452;50.796;4.994;2023-07-31T11:35:43;15.45;;;3.97;;
48665;SDS011;34452;50.796;4.994;2023-07-31T11:38:11;10.98;;;3.50;;
48665;SDS011;34452;50.796;4.994;2023-07-31T11:40:45;7.00;;;3.72;;
48665;SDS011;34452;50.796;4.994;2023-07-31T11:43:12;9.30;;;3.63;;
48665;SDS011;34452;50.796;4.994;2023-07-31T11:45:42;12.00;;;4.35;;
48665;SDS011;34452;50.796;4.994;2023-07-31T11:53:43;8.25;;;3.33;;
48665;SDS011;34452;50.796;4.994;2023-07-31T11:56:17;11.38;;;3.55;;
48665;SDS011;34452;50.796;4.994;2023-07-31T11:58:45;9.45;;;3.63;;
48665;SDS011;34452;50.796;4.994;2023-07-31T12:01:13;12.43;;;3.92;;
48665;SDS011;34452;50.796;4.994;2023-07-31T12:03:41;10.23;;;3.38;;
48665;SDS011;34452;50.796;4.994;2023-07-31T12:06:07;10.75;;;3.17;;
48665;SDS011;34452;50.796;4.994;2023-07-31T12:08:33;9.10;;;3.55;;
48665;SDS011;34452;50.796;4.994;2023-07-31T12:13:43;6.45;;;3.05;;
48665;SDS011;34452;50.796;4.994;2023-07-31T12:16:09;8.88;;;3.22;;
48665;SDS011;34452;50.796;4.994;2023-07-31T12:18:35;13.02;;;3.63;;
48665;SDS011;34452;50.796;4.994;2023-07-31T12:21:04;9.63;;;3.13;;
48665;SDS011;34452;50.796;4.994;2023-07-31T12:23:31;9.30;;;3.50;;
48665;SDS011;34452;50.796;4.994;2023-07-31T12:28:43;9.35;;;3.35;;
48665;SDS011;34452;50.796;4.994;2023-07-31T12:31:12;5.45;;;2.80;;
48665;SDS011;34452;50.796;4.994;2023-07-31T12:33:42;7.00;;;3.25;;
48665;SDS011;34452;50.796;4.994;2023-07-31T12:36:10;11.00;;;3.67;;
48665;SDS011;34452;50.796;4.994;2023-07-31T12:38:37;12.65;;;4.03;;
48665;SDS011;34452;50.796;4.994;2023-07-31T12:41:03;14.88;;;4.00;;
48665;SDS011;34452;50.796;4.994;2023-07-31T12:43:31;10.23;;;3.80;;
48665;SDS011;34452;50.796;4.994;2023-07-31T12:45:57;17.23;;;4.05;;
48665;SDS011;34452;50.796;4.994;2023-07-31T12:48:23;9.52;;;3.17;;
48665;SDS011;34452;50.796;4.994;2023-07-31T12:50:48;10.80;;;3.80;;
48665;SDS011;34452;50.796;4.994;2023-07-31T12:53:15;8.77;;;3.97;;
48665;SDS011;34452;50.796;4.994;2023-07-31T12:55:41;10.13;;;4.03;;
48665;SDS011;34452;50.796;4.994;2023-07-31T12:58:07;12.18;;;4.53;;
48665;SDS011;34452;50.796;4.994;2023-07-31T13:00:33;9.75;;;3.72;;
48665;SDS011;34452;50.796;4.994;2023-07-31T13:02:59;15.05;;;3.90;;
48665;SDS011;34452;50.796;4.994;2023-07-31T13:05:25;13.10;;;4.30;;
48665;SDS011;34452;50.796;4.994;2023-07-31T13:07:51;14.98;;;3.88;;
48665;SDS011;34452;50.796;4.994;2023-07-31T13:10:17;9.35;;;3.63;;
48665;SDS011;34452;50.796;4.994;2023-07-31T13:12:43;8.93;;;3.85;;
48665;SDS011;34452;50.796;4.994;2023-07-31T13:15:09;10.60;;;4.45;;
48665;SDS011;34452;50.796;4.994;2023-07-31T13:17:35;10.52;;;4.00;;
48665;SDS011;34452;50.796;4.994;2023-07-31T13:20:01;10.60;;;3.55;;
48665;SDS011;34452;50.796;4.994;2023-07-31T13:22:28;12.57;;;4.15;;
48665;SDS011;34452;50.796;4.994;2023-07-31T13:24:54;9.27;;;4.10;;
48665;SDS011;34452;50.796;4.994;2023-07-31T13:27:19;9.48;;;4.10;;
48665;SDS011;34452;50.796;4.994;2023-07-31T13:29:47;12.65;;;4.38;;
48665;SDS011;34452;50.796;4.994;2023-07-31T13:32:14;10.20;;;3.72;;
48665;SDS011;34452;50.796;4.994;2023-07-31T13:34:40;11.88;;;3.63;;
48665;SDS011;34452;50.796;4.994;2023-07-31T13:37:06;9.85;;;3.42;;
48665;SDS011;34452;50.796;4.994;2023-07-31T13:39:32;9.57;;;3.97;;
48665;SDS011;34452;50.796;4.994;2023-07-31T13:41:58;15.25;;;4.35;;
48665;SDS011;34452;50.796;4.994;2023-07-31T13:44:24;8.30;;;3.55;;
48665;SDS011;34452;50.796;4.994;2023-07-31T13:46:51;11.15;;;3.90;;
48665;SDS011;34452;50.796;4.994;2023-07-31T13:49:17;7.97;;;3.63;;
48665;SDS011;34452;50.796;4.994;2023-07-31T13:51:42;8.50;;;3.15;;
48665;SDS011;34452;50.796;4.994;2023-07-31T13:54:08;14.02;;;3.00;;
48665;SDS011;34452;50.796;4.994;2023-07-31T13:56:36;12.40;;;3.03;;
48665;SDS011;34452;50.796;4.994;2023-07-31T13:59:02;8.60;;;3.13;;
48665;SDS011;34452;50.796;4.994;2023-07-31T14:01:28;6.75;;;2.90;;
48665;SDS011;34452;50.796;4.994;2023-07-31T14:03:53;6.15;;;2.65;;
48665;SDS011;34452;50.796;4.994;2023-07-31T14:06:19;8.88;;;2.75;;
48665;SDS011;34452;50.796;4.994;2023-07-31T14:08:45;7.43;;;2.47;;
48665;SDS011;34452;50.796;4.994;2023-07-31T14:11:11;7.18;;;2.60;;
48665;SDS011;34452;50.796;4.994;2023-07-31T14:13:36;5.20;;;2.08;;
48665;SDS011;34452;50.796;4.994;2023-07-31T14:16:02;4.65;;;2.13;;
48665;SDS011;34452;50.796;4.994;2023-07-31T14:18:28;5.25;;;2.25;;
48665;SDS011;34452;50.796;4.994;2023-07-31T14:20:53;10.10;;;2.35;;
48665;SDS011;34452;50.796;4.994;2023-07-31T14:23:19;6.13;;;2.08;;
48665;SDS011;34452;50.796;4.994;2023-07-31T14:25:45;4.25;;;2.15;;
48665;SDS011;34452;50.796;4.994;2023-07-31T14:28:12;11.07;;;2.45;;
48665;SDS011;34452;50.796;4.994;2023-07-31T14:30:37;6.60;;;1.90;;
48665;SDS011;34452;50.796;4.994;2023-07-31T14:33:03;4.72;;;2.22;;
48665;SDS011;34452;50.796;4.994;2023-07-31T14:35:29;4.82;;;2.00;;
48665;SDS011;34452;50.796;4.994;2023-07-31T14:37:55;5.10;;;2.20;;
48665;SDS011;34452;50.796;4.994;2023-07-31T14:40:20;5.65;;;2.35;;
48665;SDS011;34452;50.796;4.994;2023-07-31T14:42:46;8.00;;;2.20;;
48665;SDS011;34452;50.796;4.994;2023-07-31T14:45:12;9.48;;;2.28;;
48665;SDS011;34452;50.796;4.994;2023-07-31T14:47:37;6.88;;;2.22;;
48665;SDS011;34452;50.796;4.994;2023-07-31T14:50:03;8.05;;;2.15;;
48665;SDS011;34452;50.796;4.994;2023-07-31T14:52:29;4.30;;;1.77;;
48665;SDS011;34452;50.796;4.994;2023-07-31T14:54:55;4.22;;;1.92;;
48665;SDS011;34452;50.796;4.994;2023-07-31T14:57:21;3.50;;;1.70;;
48665;SDS011;34452;50.796;4.994;2023-07-31T14:59:47;4.15;;;1.77;;
48665;SDS011;34452;50.796;4.994;2023-07-31T15:02:13;5.10;;;1.90;;
48665;SDS011;34452;50.796;4.994;2023-07-31T15:04:39;2.88;;;1.70;;
48665;SDS011;34452;50.796;4.994;2023-07-31T15:07:05;3.00;;;1.95;;
48665;SDS011;34452;50.796;4.994;2023-07-31T15:09:31;3.00;;;1.40;;
48665;SDS011;34452;50.796;4.994;2023-07-31T15:11:57;4.43;;;2.08;;
48665;SDS011;34452;50.796;4.994;2023-07-31T15:14:23;4.25;;;1.60;;
48665;SDS011;34452;50.796;4.994;2023-07-31T15:16:49;2.95;;;1.70;;
48665;SDS011;34452;50.796;4.994;2023-07-31T15:19:15;2.22;;;1.48;;
48665;SDS011;34452;50.796;4.994;2023-07-31T15:21:41;2.38;;;1.50;;
48665;SDS011;34452;50.796;4.994;2023-07-31T15:24:07;6.85;;;2.08;;
48665;SDS011;34452;50.796;4.994;2023-07-31T15:26:33;2.60;;;1.60;;
48665;SDS011;34452;50.796;4.994;2023-07-31T15:29:08;5.85;;;2.10;;
48665;SDS011;34452;50.796;4.994;2023-07-31T15:31:55;3.13;;;1.63;;
48665;SDS011;34452;50.796;4.994;2023-07-31T15:34:21;2.53;;;1.58;;